createdAt,value
2019-02-26T00:00:14.389Z,25.43
2019-02-26T00:03:26.412Z,17.87
2019-02-26T00:06:42.454Z,15.77
2019-02-26T00:09:57.536Z,14.40
2019-02-26T00:13:12.190Z,10.67
2019-02-26T00:16:25.808Z,24.50
2019-02-26T00:19:40.057Z,17.27
2019-02-26T00:22:55.401Z,16.37
2019-02-26T00:26:10.710Z,11.87
2019-02-26T00:29:25.428Z,12.33
2019-02-26T00:32:40.559Z,13.73
2019-02-26T00:35:54.477Z,12.63
2019-02-26T00:39:08.075Z,11.50
2019-02-26T00:42:23.842Z,12.63
2019-02-26T00:45:39.103Z,10.13
2019-02-26T00:48:52.562Z,17.93
2019-02-26T00:52:06.826Z,13.50
2019-02-26T00:55:25.462Z,8.83
2019-02-26T00:58:38.892Z,17.43
2019-02-26T01:01:53.072Z,16.40
2019-02-26T01:05:08.785Z,17.37
2019-02-26T01:08:23.803Z,15.00
2019-02-26T01:11:37.682Z,13.67
2019-02-26T01:14:51.217Z,14.63
2019-02-26T01:18:05.712Z,13.67
2019-02-26T01:21:22.169Z,22.40
2019-02-26T01:24:34.949Z,21.23
2019-02-26T01:27:51.108Z,19.87
2019-02-26T01:31:04.996Z,17.20
2019-02-26T01:34:20.383Z,14.20
2019-02-26T01:37:36.176Z,21.00
2019-02-26T01:40:52.006Z,19.17
2019-02-26T01:44:04.985Z,17.53
2019-02-26T01:47:19.600Z,17.27
2019-02-26T01:50:35.637Z,23.47
2019-02-26T01:53:51.912Z,26.67
2019-02-26T01:57:08.575Z,24.73
2019-02-26T02:00:20.778Z,19.77
2019-02-26T02:03:34.879Z,13.17
2019-02-26T02:06:48.694Z,15.63
2019-02-26T02:10:03.252Z,22.07
2019-02-26T02:13:17.059Z,17.17
2019-02-26T02:16:31.396Z,17.03
2019-02-26T02:19:46.223Z,9.97
2019-02-26T02:23:00.932Z,14.27
2019-02-26T02:26:15.714Z,15.57
2019-02-26T02:29:29.511Z,11.60
2019-02-26T02:32:43.063Z,12.63
2019-02-26T02:35:56.523Z,9.47
2019-02-26T02:39:12.952Z,10.53
2019-02-26T02:42:25.902Z,11.90
2019-02-26T02:45:39.370Z,13.90
2019-02-26T02:48:52.833Z,12.07
2019-02-26T02:52:07.235Z,13.40
2019-02-26T02:55:21.688Z,11.43
2019-02-26T02:58:35.186Z,9.67
2019-02-26T03:01:51.353Z,11.87
2019-02-26T03:05:04.630Z,11.00
2019-02-26T03:08:21.986Z,9.70
2019-02-26T03:11:38.646Z,9.50
2019-02-26T03:14:49.548Z,11.83
2019-02-26T03:18:04.130Z,11.33
2019-02-26T03:21:20.198Z,10.87
2019-02-26T03:24:35.932Z,11.50
2019-02-26T03:27:49.892Z,12.17
2019-02-26T03:31:03.615Z,11.13
2019-02-26T03:34:21.773Z,10.53
2019-02-26T03:37:34.616Z,10.40
2019-02-26T03:40:49.338Z,9.70
2019-02-26T03:44:05.854Z,11.67
2019-02-26T03:47:19.293Z,10.07
2019-02-26T03:50:32.738Z,10.87
2019-02-26T03:53:46.223Z,11.60
2019-02-26T03:57:00.406Z,9.47
2019-02-26T04:00:16.747Z,10.53
2019-02-26T04:03:32.039Z,10.40
2019-02-26T04:06:47.104Z,10.17
2019-02-26T04:10:01.227Z,9.73
2019-02-26T04:13:14.695Z,11.17
2019-02-26T04:16:29.851Z,10.10
2019-02-26T04:19:44.475Z,10.03
2019-02-26T04:22:58.236Z,9.10
2019-02-26T04:26:35.176Z,12.80
2019-02-26T04:29:59.391Z,15.67
2019-02-26T04:33:40.736Z,40.60
2019-02-26T04:37:32.748Z,18.13
2019-02-26T04:41:00.193Z,15.80
2019-02-26T04:45:05.869Z,12.20
2019-02-26T04:48:23.633Z,12.70
2019-02-26T04:51:39.108Z,11.97
2019-02-26T04:54:51.930Z,9.37
2019-02-26T04:58:05.417Z,11.30
2019-02-26T05:01:19.279Z,12.30
2019-02-26T05:04:33.971Z,9.37
2019-02-26T05:07:50.055Z,11.53
2019-02-26T05:11:03.998Z,10.13
2019-02-26T05:14:23.009Z,13.77
2019-02-26T05:17:33.399Z,9.50
2019-02-26T05:20:48.395Z,10.97
2019-02-26T05:24:03.070Z,17.37
2019-02-26T05:27:19.743Z,18.47
2019-02-26T05:30:32.627Z,17.13
2019-02-26T05:33:46.835Z,16.00
2019-02-26T05:37:02.423Z,14.97
2019-02-26T05:40:21.438Z,16.73
2019-02-26T05:43:34.050Z,14.63
2019-02-26T05:46:50.063Z,44.33
2019-02-26T05:50:06.391Z,18.43
2019-02-26T05:53:19.256Z,26.83
2019-02-26T05:56:34.140Z,41.77
2019-02-26T05:59:48.199Z,38.97
2019-02-26T06:03:03.462Z,29.60
2019-02-26T06:06:17.396Z,17.27
2019-02-26T06:09:33.770Z,29.53
2019-02-26T06:12:46.997Z,34.07
2019-02-26T06:16:01.975Z,39.87
2019-02-26T06:19:18.930Z,29.93
2019-02-26T06:22:34.626Z,23.77
2019-02-26T06:25:48.262Z,23.43
2019-02-26T06:29:01.766Z,21.93
2019-02-26T06:32:15.339Z,18.67
2019-02-26T06:35:28.995Z,20.87
2019-02-26T06:38:42.430Z,22.40
2019-02-26T06:41:56.166Z,25.90
2019-02-26T06:45:13.242Z,34.00
2019-02-26T06:48:29.190Z,30.37
2019-02-26T06:51:42.990Z,29.07
2019-02-26T06:55:00.059Z,31.53
2019-02-26T06:58:20.779Z,31.23
2019-02-26T07:01:35.267Z,24.37
2019-02-26T07:04:50.284Z,24.37
2019-02-26T07:08:04.813Z,16.90
2019-02-26T07:11:19.563Z,21.20
2019-02-26T07:14:34.525Z,29.07
2019-02-26T07:17:48.050Z,24.83
2019-02-26T07:21:01.536Z,33.50
2019-02-26T07:24:17.347Z,28.07
2019-02-26T07:27:31.992Z,45.20
2019-02-26T07:30:46.912Z,27.50
2019-02-26T07:34:02.847Z,30.57
2019-02-26T07:37:16.065Z,24.27
2019-02-26T07:40:30.519Z,24.60
2019-02-26T07:43:46.880Z,30.00
2019-02-26T07:47:01.539Z,25.17
2019-02-26T07:50:17.423Z,20.60
2019-02-26T07:53:31.787Z,34.13
2019-02-26T07:56:45.280Z,28.80
2019-02-26T07:59:59.124Z,40.50
2019-02-26T08:03:13.143Z,32.77
2019-02-26T08:06:29.197Z,34.50
2019-02-26T08:09:42.415Z,51.10
2019-02-26T08:12:56.723Z,52.13
2019-02-26T08:16:11.455Z,57.57
2019-02-26T08:19:29.478Z,48.80
2019-02-26T08:22:41.026Z,47.57
2019-02-26T08:25:55.648Z,46.33
2019-02-26T08:29:12.350Z,47.73
2019-02-26T08:32:27.919Z,50.00
2019-02-26T08:35:41.541Z,43.40
2019-02-26T08:38:57.101Z,52.50
2019-02-26T08:42:11.124Z,45.60
2019-02-26T08:45:25.759Z,43.77
2019-02-26T08:48:41.370Z,54.40
2019-02-26T08:51:55.336Z,50.90
2019-02-26T08:55:10.742Z,66.33
2019-02-26T08:58:26.361Z,65.80
2019-02-26T09:01:41.315Z,78.67
2019-02-26T09:04:55.089Z,90.73
2019-02-26T09:08:10.866Z,61.07
2019-02-26T09:11:26.149Z,62.80
2019-02-26T09:14:42.382Z,70.07
2019-02-26T09:17:55.515Z,61.00
2019-02-26T09:21:10.236Z,48.10
2019-02-26T09:24:25.107Z,39.67
2019-02-26T09:27:42.758Z,29.70
2019-02-26T09:30:56.337Z,30.33
2019-02-26T09:34:10.054Z,30.90
2019-02-26T09:37:23.564Z,32.27
2019-02-26T09:40:37.371Z,24.53
2019-02-26T09:43:50.889Z,21.57
2019-02-26T09:47:05.446Z,17.67
2019-02-26T09:50:22.542Z,13.27
2019-02-26T09:53:35.567Z,16.20
2019-02-26T09:56:49.168Z,11.13
2019-02-26T10:00:05.725Z,9.37
2019-02-26T10:03:19.518Z,7.07
2019-02-26T10:06:34.591Z,10.13
2019-02-26T10:09:49.007Z,11.97
2019-02-26T10:13:04.751Z,10.30
2019-02-26T10:16:18.194Z,13.30
2019-02-26T10:19:33.722Z,13.20
2019-02-26T10:22:47.160Z,12.17
2019-02-26T10:26:02.833Z,11.83
2019-02-26T10:29:16.310Z,13.47
2019-02-26T10:32:29.793Z,11.87
2019-02-26T10:35:45.562Z,11.93
2019-02-26T10:39:02.279Z,13.63
2019-02-26T10:42:14.966Z,11.07
2019-02-26T10:45:28.541Z,12.93
2019-02-26T10:48:43.412Z,14.17
2019-02-26T10:51:58.641Z,16.20
2019-02-26T10:55:15.127Z,11.93
2019-02-26T10:58:28.713Z,10.83
2019-02-26T11:01:43.319Z,9.23
2019-02-26T11:04:56.983Z,8.90
2019-02-26T11:08:10.756Z,8.00
2019-02-26T11:11:24.286Z,10.17
2019-02-26T11:14:39.615Z,6.33
2019-02-26T11:17:55.684Z,12.23
2019-02-26T11:21:09.616Z,13.90
2019-02-26T11:24:23.918Z,13.60
2019-02-26T11:27:40.877Z,9.70
2019-02-26T11:30:56.570Z,8.23
2019-02-26T11:34:11.246Z,8.43
2019-02-26T11:37:27.150Z,14.93
2019-02-26T11:40:41.247Z,12.00
2019-02-26T11:43:55.015Z,10.03
2019-02-26T11:47:10.983Z,10.17
2019-02-26T11:50:28.209Z,11.40
2019-02-26T11:53:40.254Z,11.23
2019-02-26T11:56:53.908Z,8.93
2019-02-26T12:00:13.945Z,9.80
2019-02-26T12:03:30.346Z,7.33
2019-02-26T12:06:43.741Z,6.17
2019-02-26T12:09:57.962Z,6.37
2019-02-26T12:13:14.681Z,5.10
2019-02-26T12:16:29.155Z,5.47
2019-02-26T12:19:42.994Z,4.00
2019-02-26T12:22:56.485Z,3.93
2019-02-26T12:26:10.286Z,4.63
2019-02-26T12:29:25.839Z,4.97
2019-02-26T12:32:39.371Z,4.90
2019-02-26T12:35:55.519Z,4.63
2019-02-26T12:39:08.443Z,4.23
2019-02-26T12:42:21.941Z,5.97
2019-02-26T12:45:38.668Z,6.83
2019-02-26T12:48:50.912Z,6.10
2019-02-26T12:52:04.505Z,5.53
2019-02-26T12:55:18.262Z,7.27
2019-02-26T12:58:31.991Z,7.20
2019-02-26T13:01:46.814Z,7.40
2019-02-26T13:05:00.975Z,6.43
2019-02-26T13:08:18.931Z,5.83
2019-02-26T13:11:30.256Z,5.90
2019-02-26T13:14:47.307Z,7.13
2019-02-26T13:18:00.046Z,6.83
2019-02-26T13:21:16.992Z,7.13
2019-02-26T13:24:29.435Z,6.20
2019-02-26T13:27:45.261Z,6.30
2019-02-26T13:31:02.294Z,6.30
2019-02-26T13:34:17.104Z,6.47
2019-02-26T13:37:32.444Z,7.03
2019-02-26T13:40:45.986Z,7.60
2019-02-26T13:43:59.603Z,6.37
2019-02-26T13:47:13.638Z,6.70
2019-02-26T13:50:27.512Z,6.93
2019-02-26T13:53:41.305Z,6.83
2019-02-26T13:56:55.421Z,6.57
2019-02-26T14:00:10.415Z,8.37
2019-02-26T14:03:24.288Z,6.50
2019-02-26T14:06:38.055Z,6.80
2019-02-26T14:09:51.706Z,7.77
2019-02-26T14:13:05.283Z,7.03
2019-02-26T14:16:18.997Z,6.03
2019-02-26T14:19:32.535Z,6.60
2019-02-26T14:22:46.533Z,7.57
2019-02-26T14:26:00.038Z,8.67
2019-02-26T14:29:13.705Z,5.70
2019-02-26T14:32:27.601Z,8.70
2019-02-26T14:35:41.193Z,7.03
2019-02-26T14:38:55.154Z,9.87
2019-02-26T14:42:09.094Z,7.27
2019-02-26T14:45:23.274Z,6.87
2019-02-26T14:48:37.040Z,10.20
2019-02-26T14:51:51.510Z,11.67
2019-02-26T14:55:05.637Z,9.33
2019-02-26T14:58:19.495Z,8.47
2019-02-26T15:01:33.060Z,9.07
2019-02-26T15:04:47.379Z,6.67
2019-02-26T15:08:01.436Z,7.73
2019-02-26T15:11:15.149Z,7.53
2019-02-26T15:14:30.059Z,7.27
2019-02-26T15:17:44.166Z,6.87
2019-02-26T15:20:57.943Z,6.20
2019-02-26T15:24:12.087Z,8.23
2019-02-26T15:27:25.740Z,31.30
2019-02-26T15:30:40.237Z,8.63
2019-02-26T15:33:58.131Z,7.67
2019-02-26T15:37:11.602Z,7.87
2019-02-26T15:40:25.890Z,8.03
2019-02-26T15:43:39.904Z,6.40
2019-02-26T15:46:53.475Z,7.10
2019-02-26T15:50:09.539Z,5.87
2019-02-26T15:53:23.805Z,5.90
2019-02-26T15:56:39.526Z,5.27
2019-02-26T15:59:53.017Z,6.17
2019-02-26T16:03:06.924Z,6.37
2019-02-26T16:06:20.792Z,6.73
2019-02-26T16:09:35.746Z,5.93
2019-02-26T16:12:50.777Z,6.50
2019-02-26T16:16:04.438Z,5.00
2019-02-26T16:19:18.143Z,5.33
2019-02-26T16:22:32.385Z,7.10
2019-02-26T16:25:46.972Z,9.63
2019-02-26T16:29:01.074Z,12.57
2019-02-26T16:32:16.082Z,7.80
2019-02-26T16:35:30.108Z,11.43
2019-02-26T16:38:43.938Z,11.67
2019-02-26T16:41:58.057Z,31.90
2019-02-26T16:45:35.089Z,23.67
2019-02-26T16:48:48.960Z,18.40
2019-02-26T16:52:05.888Z,12.43
2019-02-26T16:55:20.007Z,27.37
2019-02-26T16:58:37.278Z,18.30
2019-02-26T17:01:52.625Z,15.93
2019-02-26T17:05:07.490Z,16.73
2019-02-26T17:08:21.481Z,24.33
2019-02-26T17:11:55.153Z,19.33
2019-02-26T17:15:15.154Z,22.63
2019-02-26T17:18:28.933Z,20.83
2019-02-26T17:21:44.450Z,29.57
2019-02-26T17:24:57.933Z,27.90
2019-02-26T17:28:12.365Z,16.63
2019-02-26T17:31:28.722Z,20.83
2019-02-26T17:34:42.005Z,19.10
2019-02-26T17:37:55.700Z,20.17
2019-02-26T17:41:09.902Z,12.73
2019-02-26T17:44:24.710Z,17.57
2019-02-26T17:47:38.211Z,23.50
2019-02-26T17:50:51.801Z,19.73
2019-02-26T17:54:05.488Z,25.47
2019-02-26T17:57:19.660Z,31.37
2019-02-26T18:00:36.634Z,27.87
2019-02-26T18:03:50.192Z,26.23
2019-02-26T18:07:03.979Z,22.20
2019-02-26T18:10:18.682Z,18.90
2019-02-26T18:13:32.234Z,26.23
2019-02-26T18:16:45.706Z,39.53
2019-02-26T18:19:59.183Z,46.47
2019-02-26T18:23:13.262Z,54.23
2019-02-26T18:26:26.753Z,49.83
2019-02-26T18:29:40.226Z,47.50
2019-02-26T18:32:57.408Z,68.37
2019-02-26T18:36:12.508Z,50.17
2019-02-26T18:39:25.982Z,23.73
2019-02-26T18:42:41.374Z,45.70
2019-02-26T18:45:54.946Z,65.00
2019-02-26T18:49:08.739Z,58.67
2019-02-26T18:52:22.739Z,73.40
2019-02-26T18:55:36.200Z,38.07
2019-02-26T18:58:50.481Z,54.50
2019-02-26T19:02:05.052Z,53.73
2019-02-26T19:05:21.033Z,56.80
2019-02-26T19:08:34.721Z,53.20
2019-02-26T19:11:48.505Z,34.53
2019-02-26T19:15:02.305Z,43.90
2019-02-26T19:18:15.766Z,30.23
2019-02-26T19:21:29.226Z,31.17
2019-02-26T19:24:42.806Z,66.37
2019-02-26T19:27:56.378Z,43.60
2019-02-26T19:31:10.344Z,44.73
2019-02-26T19:34:28.053Z,45.97
2019-02-26T19:37:39.954Z,31.20
2019-02-26T19:40:53.986Z,42.03
2019-02-26T19:44:07.792Z,44.37
2019-02-26T19:47:22.745Z,35.20
2019-02-26T19:50:36.833Z,27.13
2019-02-26T19:53:50.856Z,25.43
2019-02-26T19:57:04.317Z,30.87
2019-02-26T20:00:19.890Z,30.97
2019-02-26T20:03:39.931Z,40.13
2019-02-26T20:06:48.905Z,29.23
2019-02-26T20:10:03.081Z,21.77
2019-02-26T20:13:16.566Z,33.50
2019-02-26T20:16:30.074Z,25.63
2019-02-26T20:19:43.541Z,21.50
2019-02-26T20:22:57.276Z,32.57
2019-02-26T20:26:10.850Z,30.53
2019-02-26T20:29:24.704Z,23.30
2019-02-26T20:32:38.567Z,37.43
2019-02-26T20:35:52.362Z,29.83
2019-02-26T20:39:07.939Z,22.50
2019-02-26T20:42:21.813Z,30.07
2019-02-26T20:45:35.794Z,60.80
2019-02-26T20:48:49.566Z,26.13
2019-02-26T20:52:03.392Z,24.93
2019-02-26T20:55:19.251Z,34.57
2019-02-26T20:58:33.430Z,20.10
2019-02-26T21:01:47.177Z,23.97
2019-02-26T21:05:00.687Z,26.07
2019-02-26T21:08:14.257Z,32.07
2019-02-26T21:11:28.008Z,14.23
2019-02-26T21:14:41.958Z,26.77
2019-02-26T21:17:57.798Z,27.00
2019-02-26T21:21:11.711Z,16.00
2019-02-26T21:24:26.319Z,14.17
2019-02-26T21:27:39.979Z,11.90
2019-02-26T21:30:53.456Z,33.30
2019-02-26T21:34:06.916Z,13.13
2019-02-26T21:37:20.653Z,19.33
2019-02-26T21:40:34.151Z,12.33
2019-02-26T21:43:47.627Z,23.00
2019-02-26T21:47:01.097Z,32.90
2019-02-26T21:50:14.774Z,48.63
2019-02-26T21:53:28.250Z,27.53
2019-02-26T21:56:41.976Z,12.30
2019-02-26T21:59:55.424Z,46.90
2019-02-26T22:03:08.886Z,44.93
2019-02-26T22:06:22.616Z,25.07
2019-02-26T22:09:36.071Z,16.53
2019-02-26T22:12:49.533Z,21.67
2019-02-26T22:16:03.339Z,22.27
2019-02-26T22:19:17.395Z,36.77
2019-02-26T22:22:30.896Z,68.60
2019-02-26T22:25:44.635Z,81.50
2019-02-26T22:28:58.120Z,44.57
2019-02-26T22:32:11.594Z,17.27
2019-02-26T22:35:25.900Z,81.43
2019-02-26T22:38:39.963Z,80.17
2019-02-26T22:41:53.446Z,70.20
2019-02-26T22:45:07.743Z,58.43
2019-02-26T22:48:21.582Z,18.23
2019-02-26T22:51:35.283Z,16.50
2019-02-26T22:54:49.063Z,14.43
2019-02-26T22:58:03.329Z,10.17
2019-02-26T23:01:42.853Z,25.60
2019-02-26T23:04:56.423Z,14.70
2019-02-26T23:08:11.882Z,10.17
2019-02-26T23:11:25.860Z,14.40
2019-02-26T23:14:39.732Z,12.87
2019-02-26T23:17:53.404Z,69.37
2019-02-26T23:21:07.960Z,16.33
2019-02-26T23:24:21.637Z,11.93
2019-02-26T23:27:35.200Z,6.57
2019-02-26T23:30:48.855Z,4.70
2019-02-26T23:34:02.439Z,18.07
2019-02-26T23:37:15.996Z,27.13
2019-02-26T23:40:29.568Z,8.47
2019-02-26T23:43:45.436Z,14.90
2019-02-26T23:47:01.654Z,12.60
2019-02-26T23:50:14.913Z,7.43
2019-02-26T23:53:28.368Z,15.67
2019-02-26T23:56:42.067Z,8.60
2019-02-26T23:59:55.536Z,7.97
